本站提供 蓝光Blu-ray/HDDVD/HDTV RiP 720P/1080P 蓝光原盘 电影电视,硬盘代拷贝
1. 代拷贝收费标准:例如:500G硬盘(实际可拷贝465G)=70元,640G硬盘(实际可拷贝596G)=80元,1TB硬盘(实际可拷贝930G)=100元,1.5TB硬盘(实际可拷贝1396GB)=150元,2TB硬盘(实际可拷贝1862GB)=200元,3TB硬盘(实际可拷贝2792GB)=300元。本站也有全新拷满自选片源硬盘出售。
2. 购买硬盘联系方式: 阿里旺旺: 点击这里给我发消息  ,邮箱和QQ帐号: 淘宝店铺:http://94hd.taobao.com

    关于各种格式的区别:
  • 原盘:原始蓝光光盘上拷贝,包含菜单﹑花絮等,电脑上需用ArcSoft TotalMedia Theater或PowerDVD播放才有字幕,高清播放机播放原盘或原盘ISO,请确保你的机子支持后再选,避免发生兼容性问题
  • REMUX:无损的提取出原盘的原始视频数据和音频数据,去除菜单﹑花絮和多余的音轨,封装到TS格式中,可能采用DVD提取的国粤语和其他音轨,画质与原盘没有差别
  • 720P RiP:对蓝光Blu-ray等介质的原始视频进行重编码,视频形式采用X264编码,容量一般为4.36G~8.7G,音频采用原片音轨转码的AC3或DTS,能采用DVD提取的国粤语和其他音轨,分辨率1280X528~720
  • 1080P RiP:对蓝光Blu-ray等介质的原始视频进行重编码,视频形式采用X264编码,容量一般为6.6G~13G,音频采用原片音轨转码的AC3或DTS,能采用DVD提取的国粤语和其他音轨,分辨率1920X800~1080
  • HDTV的片源是录制于高清电视,基本都有台标

  搜索栏- [更多搜索选项]
搜索影片中英皆可  

总共 31584 条记录 729.21 TB: « « ... « 338 339 340 341 342 343 344 345 346 347 348 349 350 351 352 353 354 355 356 » ... » » 请注册帐号并登录后再选片

 影片列表
选择 更新日期片源年份类型容量片名格式音轨地区字幕IMDB评分
2011.07.04蓝光原盘 1080p1989电影21.28 GB英雄本色3 A Better Tomorrow III  (动作, 战争) BDMV/AVC中英字幕5.8
2011.07.04蓝光原盘 1080p1987电影20.84 GB英雄本色2 A Better Tomorrow II  (动作, 犯罪, 剧情, 惊悚) BDMV/AVC中英字幕7.3
2011.07.04蓝光原盘 1080p1986电影19.95 GB英雄本色 A Better Tomorrow  (动作, 犯罪, 剧情, 惊悚) BDMV/AVC中英字幕7.5
2011.07.04蓝光原盘 1080p2007纪录121.79 GB宇宙 The.Universe 第1季 (纪录, 历史) BDMV/AVC中英字幕8.8
2011.07.04蓝光原盘 1080p2010动画79.32 GB赤色的约定 Fortune Arterial: Akai yakusoku  (动画) BDMV/AVC中文字幕6.9
2011.07.04蓝光原盘 1080p2010演示17.15 GBCES2010 DTS蓝光演示碟 DTS Blu-ray Demonstration Disc CES 2010   BDMV/AVC无字幕
2011.07.04蓝光原盘 1080i2011音乐38.94 GB演唱会 The Prodigy: World's on Fire, Live   BDMV/AVC无字幕
2011.07.04蓝光原盘 1080p2009电影21.88 GB街头霸王:春丽传 Street Fighter: The Legend of Chun-Li  (动作, 冒险, 科幻, 惊悚) BDMV/AVC中英字幕3.9
2011.07.04HDTV RiP 720p2009剧集11.57 GB韩剧:传说中的故乡 Hometown Legends   MKV/x264中文字幕
2011.07.04HDTV RiP 720p2011剧集22.78 GBTVB港剧:怒火街头 Ghetto Justice   MKV/x264中文字幕
2011.07.04HDTV RiP 720p2011剧集21.15 GB国产剧:中国1945之重庆风云 China 1945   MKV/x264中文字幕
2011.07.04HDTV RiP 720p2010剧集44.92 GB国产剧:娘妻 Niang Qi   MKV/x264中文字幕
2011.07.04HDTV RiP 720p2011剧集30.09 GB国产剧:新四军女兵 Women Soldiers From The Fourth Regiment   MKV/x264中文字幕
2011.07.04HDTV RiP 720p2010剧集40.35 GB国产剧:侦察记 Reconnaissance In Mind   MKV/x264中文字幕
2011.07.04HDTV RiP 720p2011剧集35.25 GB韩剧:对我说谎试试 Lie to Me   MKV/x264中文字幕
2011.07.04HDTV RiP 720p2011剧集35.28 GB韩剧:最佳爱情 Greatest Love   MKV/x264中文字幕
2011.07.04HDTV RiP 720p2007剧集10.08 GB日剧:嫁入好人家 Erai Tokoro ni Totsuide Shimatta!   AVI/DIVX无字幕
2011.07.04HDTV RiP 720p2006剧集19.87 GB日剧:交响情人梦 Nodame Cantabile   AVI/DIVX中文字幕
2011.07.04HDTV RiP 720p2007剧集2.91 GB日剧:折翼的天使们2 Tsubasa no Oreta Tenshitachi 2   AVI/DIVX中文字幕
2011.07.04HDTV RiP 720p2011体育183.72 GB2011NBA季后赛全集 NBA Playoff   MKV/x264无字幕
2011.07.04蓝光 RiP 1080p2011电影8.70 GB关云长 The Lost Bladesman  (动作, 传记, 剧情, 历史) MKV/x264中英字幕5.8
2011.07.04蓝光 RiP 1080p2011动画6.53 GB喜羊羊与灰太狼3:兔年顶呱呱 Pleasant Goat and Big Big Wolf   MKV/x264中文字幕
2011.07.04蓝光 RiP 1080p1955电影14.00 GB死吻 Kiss Me Deadly  (犯罪, 剧情, 黑色, 神秘, 惊悚) MKV/x264中文字幕7.7
2011.07.04蓝光 RiP 1080p2011电影7.90 GB携枪流浪汉 Hobo with a Shotgun  (动作, 犯罪, 惊悚) MKV/x264中英字幕6.5
2011.07.04蓝光 RiP 1080p2011电影8.72 GB大假一场 Cedar Rapids  (喜剧) MKV/x264中英字幕6.6
2011.07.04蓝光 RiP 1080p2011电影8.71 GB英雄时代 Age of Heroes  (战争) MKV/x264中文字幕5.7
2011.07.04蓝光 RiP 1080p2007电影9.49 GB幸运库克 Good Luck Chuck  (喜剧, 剧情, 爱情) MKV/x264中英字幕5.6
2011.07.04蓝光 RiP 1080p2002电影10.87 GB不忠 Unfaithful  (剧情, 惊悚) MKV/x264中英字幕6.5
2011.07.04蓝光 RiP 1080p1998电影9.50 GB死亡密码/圆周率/数字漩涡 Pi  (剧情, 科幻, 惊悚) MKV/x264中英字幕7.6
2011.07.04蓝光 RiP 1080p1982电影9.50 GB电子世界争霸战 TRON  (动作, 冒险, 科幻) MKV/x264中英字幕6.7
2011.07.04蓝光 RiP 1080p2010纪录6.06 GB天坛 Temple of Heaven   MKV/x264中文字幕
2011.07.04蓝光 RiP 1080p2010纪录8.03 GB峨眉山 Mount Emei   MKV/x264中文字幕
2011.07.04蓝光 RiP 720p1991电影5.20 GB与敌同眠 Sleeping with the Enemy  (剧情, 惊悚) MKV/x264中文字幕5.8
2011.07.04蓝光 RiP 720p2011电影5.01 GB关云长 The Lost Bladesman  (动作, 传记, 剧情, 历史) MKV/x264中英字幕5.8
2011.07.04蓝光 RiP 720p2011动画3.51 GB喜羊羊与灰太狼3:兔年顶呱呱 Pleasant Goat and Big Big Wolf   MKV/x264中文字幕
2011.07.04蓝光 RiP 720p2010电影4.35 GB远古食人鲨/恐龙鲨鱼/恐鲨 Dinoshark  (科幻) MKV/x264中文字幕3.5
2011.07.04蓝光 RiP 720p1999电影6.00 GB疑云密怖/悬情追踪/驿动的心/胆战心惊 Random Hearts  (剧情, 神秘, 爱情) MKV/x264中文字幕4.9
2011.07.04蓝光 RiP 720p1955电影5.44 GB死吻 Kiss Me Deadly  (犯罪, 剧情, 黑色, 神秘, 惊悚) MKV/x264中文字幕7.7
2011.07.04蓝光 RiP 720p2002电影6.01 GB蓝色激情/碧海娇娃/蓝得有情人 Blue Crush  (剧情, 爱情, 运动) MKV/x264中文字幕5.5
2011.07.04蓝光 RiP 720p2011电影4.36 GB携枪流浪汉 Hobo with a Shotgun  (动作, 犯罪, 惊悚) MKV/x264中英字幕6.5
2011.07.04蓝光 RiP 720p2010电影5.01 GB章鲨 Sharktopus  (恐怖, 科幻) MKV/x264中英字幕3.4
2011.07.04蓝光 RiP 720p2011电影4.37 GB大假一场 Cedar Rapids  (喜剧) MKV/x264中英字幕6.6
2011.07.04蓝光 RiP 720p2005电影5.51 GB勇敢者游戏2 Zathura: A Space Adventure  (动作, 冒险, 喜剧, 家庭, 奇幻, 科幻) MKV/x264中英字幕6.2
2011.07.04蓝光 RiP 720p1995电影5.51 GB勇敢者的游戏 Jumanji  (冒险, 家庭, 奇幻, 惊悚) MKV/x264中英字幕6.5
2011.07.04蓝光 RiP 720p2011电影4.37 GB英雄时代 Age of Heroes  (战争) MKV/x264中文字幕5.7
2011.07.04蓝光 RiP 720p1993电影4.37 GB横财就手 Money for Nothing  (喜剧, 犯罪, 剧情) MKV/x264中文字幕5.6
2011.07.04蓝光 RiP 720p1998电影6.56 GBX档案:征服未来 The X Files  (犯罪, 恐怖, 神秘, 科幻, 惊悚) MKV/x264中英字幕6.8
2011.07.04蓝光 RiP 720p2005电影5.00 GB花与蛇2 Flower & Snake II   MKV/x264中文字幕5.8
2011.07.04蓝光 RiP 720p2011纪录4.37 GB音乐纪录片 Foo Fighters: Back and Forth  (纪录, 音乐) MKV/x264无字幕8.5
2011.07.04蓝光 RiP 720p1988音乐4.37 GBU2神采飞扬 U2: Rattle and Hum   MKV/x264无字幕7.1

总共 31584 条记录 729.21 TB: « « ... « 338 339 340 341 342 343 344 345 346 347 348 349 350 351 352 353 354 355 356 » ... » » 请注册帐号并登录后再选片